createdAt,value
2018-11-23T00:01:18.911Z,925.05
2018-11-23T00:02:50.486Z,924.97
2018-11-23T00:04:22.059Z,925.03
2018-11-23T00:05:54.021Z,925.06
2018-11-23T00:07:25.311Z,925.08
2018-11-23T00:08:56.889Z,924.98
2018-11-23T00:10:28.355Z,924.92
2018-11-23T00:11:59.929Z,924.93
2018-11-23T00:13:31.503Z,924.96
2018-11-23T00:15:03.077Z,924.93
2018-11-23T00:16:34.651Z,924.99
2018-11-23T00:18:06.227Z,925.02
2018-11-23T00:19:37.798Z,925.06
2018-11-23T00:21:09.372Z,925.03
2018-11-23T00:22:40.951Z,925.03
2018-11-23T00:24:12.761Z,925.04
2018-11-23T00:27:15.669Z,925.00
2018-11-23T00:28:47.243Z,924.98
2018-11-23T00:30:18.817Z,924.96
2018-11-23T00:31:50.400Z,924.98
2018-11-23T00:33:21.966Z,924.96
2018-11-23T00:34:53.540Z,925.03
2018-11-23T00:36:25.114Z,925.10
2018-11-23T00:37:56.688Z,925.10
2018-11-23T00:39:28.263Z,925.17
2018-11-23T00:40:59.837Z,925.17
2018-11-23T00:42:31.512Z,925.15
2018-11-23T00:44:02.986Z,925.14
2018-11-23T00:45:35.652Z,925.12
2018-11-23T00:47:06.134Z,925.07
2018-11-23T00:48:37.708Z,925.07
2018-11-23T00:50:09.283Z,925.06
2018-11-23T00:51:41.166Z,925.07
2018-11-23T00:53:12.431Z,925.02
2018-11-23T00:54:44.031Z,925.03
2018-11-23T00:56:15.579Z,924.97
2018-11-23T00:57:47.153Z,924.96
2018-11-23T00:59:18.737Z,924.92
2018-11-23T01:00:50.406Z,924.94
2018-11-23T01:02:21.883Z,924.90
2018-11-23T01:03:53.450Z,924.92
2018-11-23T01:05:25.024Z,924.85
2018-11-23T01:06:56.600Z,924.88
2018-11-23T01:08:28.174Z,924.95
2018-11-23T01:09:59.746Z,925.05
2018-11-23T01:11:31.321Z,925.13
2018-11-23T01:13:02.894Z,925.14
2018-11-23T01:14:34.467Z,925.09
2018-11-23T01:16:06.042Z,925.07
2018-11-23T01:17:37.617Z,925.11
2018-11-23T01:19:09.289Z,925.13
2018-11-23T01:20:40.763Z,925.16
2018-11-23T01:22:12.337Z,925.20
2018-11-23T01:23:44.113Z,925.24
2018-11-23T01:25:15.487Z,925.27
2018-11-23T01:26:47.058Z,925.29
2018-11-23T01:28:18.637Z,925.34
2018-11-23T01:29:50.209Z,925.40
2018-11-23T01:31:21.780Z,925.38
2018-11-23T01:32:53.662Z,925.38
2018-11-23T01:34:24.930Z,925.36
2018-11-23T01:35:56.502Z,925.44
2018-11-23T01:37:28.177Z,925.50
2018-11-23T01:38:59.650Z,925.51
2018-11-23T01:40:31.224Z,925.58
2018-11-23T01:42:02.798Z,925.64
2018-11-23T01:43:34.372Z,925.61
2018-11-23T01:45:05.950Z,925.63
2018-11-23T01:46:37.520Z,925.70
2018-11-23T01:48:09.093Z,925.72
2018-11-23T01:49:41.173Z,925.82
2018-11-23T01:51:12.240Z,925.92
2018-11-23T01:52:43.821Z,925.96
2018-11-23T01:54:15.390Z,925.99
2018-11-23T01:55:47.062Z,926.06
2018-11-23T01:57:18.535Z,926.02
2018-11-23T01:58:50.109Z,925.98
2018-11-23T02:00:21.686Z,926.04
2018-11-23T02:01:53.256Z,925.99
2018-11-23T02:03:24.830Z,925.99
2018-11-23T02:04:56.403Z,925.93
2018-11-23T02:06:27.977Z,925.90
2018-11-23T02:07:59.550Z,925.94
2018-11-23T02:09:31.129Z,925.88
2018-11-23T02:11:02.696Z,925.79
2018-11-23T02:12:34.269Z,925.69
2018-11-23T02:14:05.944Z,925.65
2018-11-23T02:15:37.416Z,925.62
2018-11-23T02:17:08.990Z,925.61
2018-11-23T02:18:40.564Z,925.64
2018-11-23T02:20:12.138Z,925.69
2018-11-23T02:21:43.711Z,925.60
2018-11-23T02:23:15.289Z,925.56
2018-11-23T02:24:46.858Z,925.46
2018-11-23T02:26:18.432Z,925.41
2018-11-23T02:27:50.007Z,925.35
2018-11-23T02:29:21.580Z,925.32
2018-11-23T02:30:53.303Z,925.30
2018-11-23T02:32:24.828Z,925.29
2018-11-23T02:33:56.301Z,925.23
2018-11-23T02:35:27.875Z,925.23
2018-11-23T02:36:59.448Z,925.20
2018-11-23T02:38:31.022Z,925.17
2018-11-23T02:40:02.596Z,925.20
2018-11-23T02:41:34.169Z,925.14
2018-11-23T02:43:05.745Z,925.14
2018-11-23T02:44:37.316Z,925.15
2018-11-23T02:46:08.889Z,925.18
2018-11-23T02:47:40.971Z,925.19
2018-11-23T02:49:12.038Z,925.13
2018-11-23T02:50:43.710Z,925.05
2018-11-23T02:52:15.183Z,924.98
2018-11-23T02:53:46.756Z,924.90
2018-11-23T02:55:18.329Z,924.88
2018-11-23T02:56:49.907Z,924.88
2018-11-23T02:58:21.475Z,924.86
2018-11-23T02:59:53.048Z,924.82
2018-11-23T03:01:24.621Z,924.76
2018-11-23T03:02:56.204Z,924.79
2018-11-23T03:04:27.768Z,924.82
2018-11-23T03:05:59.340Z,924.81
2018-11-23T03:07:30.916Z,924.78
2018-11-23T03:09:02.587Z,924.73
2018-11-23T03:10:34.061Z,924.68
2018-11-23T03:12:05.632Z,924.63
2018-11-23T03:13:37.204Z,924.67
2018-11-23T03:15:08.878Z,924.68
2018-11-23T03:16:40.350Z,924.61
2018-11-23T03:18:11.928Z,924.66
2018-11-23T03:19:43.496Z,924.64
2018-11-23T03:21:15.069Z,924.62
2018-11-23T03:22:46.642Z,924.58
2018-11-23T03:24:18.226Z,924.55
2018-11-23T03:25:49.788Z,924.51
2018-11-23T03:27:21.561Z,924.49
2018-11-23T03:28:52.939Z,924.49
2018-11-23T03:30:24.507Z,924.47
2018-11-23T03:31:56.095Z,924.45
2018-11-23T03:33:27.955Z,924.41
2018-11-23T03:34:59.224Z,924.41
2018-11-23T03:36:30.799Z,924.41
2018-11-23T03:38:02.369Z,924.45
2018-11-23T03:39:34.281Z,924.46
2018-11-23T03:41:05.515Z,924.53
2018-11-23T03:42:37.087Z,924.53
2018-11-23T03:44:08.660Z,924.50
2018-11-23T03:47:11.908Z,924.44
2018-11-23T03:48:43.377Z,924.40
2018-11-23T03:50:14.956Z,924.37
2018-11-23T03:51:46.523Z,924.32
2018-11-23T03:53:18.097Z,924.26
2018-11-23T03:54:49.668Z,924.24
2018-11-23T03:56:21.240Z,924.27
2018-11-23T03:57:52.812Z,924.23
2018-11-23T03:59:24.486Z,924.16
2018-11-23T04:00:55.957Z,924.08
2018-11-23T04:03:59.101Z,923.92
2018-11-23T04:05:31.074Z,923.78
2018-11-23T04:07:02.245Z,923.73
2018-11-23T04:08:33.818Z,923.70
2018-11-23T04:10:05.392Z,923.82
2018-11-23T04:11:36.965Z,923.89
2018-11-23T04:13:08.535Z,923.97
2018-11-23T04:14:40.107Z,924.01
2018-11-23T04:16:11.679Z,924.01
2018-11-23T04:17:43.555Z,923.88
2018-11-23T04:19:14.824Z,923.84
2018-11-23T04:20:46.396Z,923.78
2018-11-23T04:22:17.976Z,923.81
2018-11-23T04:23:49.641Z,923.90
2018-11-23T04:25:21.116Z,923.92
2018-11-23T04:26:52.889Z,923.91
2018-11-23T04:28:24.258Z,923.85
2018-11-23T04:29:55.931Z,923.86
2018-11-23T04:31:27.405Z,923.83
2018-11-23T04:32:58.976Z,923.81
2018-11-23T04:34:30.552Z,923.83
2018-11-23T04:36:02.421Z,923.84
2018-11-23T04:37:33.693Z,923.86
2018-11-23T04:39:05.265Z,923.81
2018-11-23T04:40:36.838Z,923.76
2018-11-23T04:42:08.510Z,923.70
2018-11-23T04:43:40.287Z,923.72
2018-11-23T04:45:11.596Z,923.74
2018-11-23T04:46:43.127Z,923.72
2018-11-23T04:48:14.704Z,923.64
2018-11-23T04:49:46.274Z,923.63
2018-11-23T04:51:17.846Z,923.65
2018-11-23T04:52:49.951Z,923.61
2018-11-23T04:54:20.992Z,923.60
2018-11-23T04:55:52.563Z,923.61
2018-11-23T04:57:24.135Z,923.52
2018-11-23T04:58:55.718Z,923.54
2018-11-23T05:00:27.483Z,923.47
2018-11-23T05:01:58.852Z,923.50
2018-11-23T05:03:30.428Z,923.49
2018-11-23T05:05:02.006Z,923.53
2018-11-23T05:06:33.870Z,923.48
2018-11-23T05:08:05.142Z,923.45
2018-11-23T05:09:36.716Z,923.45
2018-11-23T05:11:08.287Z,923.43
2018-11-23T05:12:40.160Z,923.40
2018-11-23T05:14:11.432Z,923.34
2018-11-23T05:15:43.004Z,923.34
2018-11-23T05:17:14.577Z,923.31
2018-11-23T05:18:46.250Z,923.32
2018-11-23T05:20:17.721Z,923.40
2018-11-23T05:21:49.293Z,923.31
2018-11-23T05:23:20.865Z,923.30
2018-11-23T05:24:53.144Z,923.27
2018-11-23T05:26:24.010Z,923.24
2018-11-23T05:27:55.582Z,923.27
2018-11-23T05:29:27.154Z,923.31
2018-11-23T05:30:58.726Z,923.34
2018-11-23T05:32:30.299Z,923.38
2018-11-23T05:34:01.874Z,923.41
2018-11-23T05:35:33.442Z,923.38
2018-11-23T05:37:05.416Z,923.37
2018-11-23T05:38:36.587Z,923.33
2018-11-23T05:40:08.159Z,923.31
2018-11-23T05:41:40.467Z,923.25
2018-11-23T05:43:11.303Z,923.24
2018-11-23T05:44:42.878Z,923.25
2018-11-23T05:46:14.448Z,923.26
2018-11-23T05:47:46.021Z,923.21
2018-11-23T05:49:17.592Z,923.23
2018-11-23T05:50:49.164Z,923.24
2018-11-23T05:52:20.743Z,923.19
2018-11-23T05:53:52.308Z,923.25
2018-11-23T05:55:23.981Z,923.25
2018-11-23T05:56:55.453Z,923.23
2018-11-23T05:58:27.026Z,923.27
2018-11-23T05:59:58.598Z,923.29
2018-11-23T06:01:30.277Z,923.19
2018-11-23T06:03:01.742Z,923.13
2018-11-23T06:04:33.314Z,923.14
2018-11-23T06:06:04.887Z,923.15
2018-11-23T06:07:36.759Z,923.13
2018-11-23T06:09:08.031Z,923.08
2018-11-23T06:10:39.603Z,923.05
2018-11-23T06:12:11.176Z,923.02
2018-11-23T06:15:14.420Z,923.03
2018-11-23T06:16:45.892Z,923.04
2018-11-23T06:18:17.464Z,923.04
2018-11-23T06:19:49.037Z,923.05
2018-11-23T06:21:20.611Z,922.98
2018-11-23T06:22:52.184Z,923.00
2018-11-23T06:24:23.753Z,922.93
2018-11-23T06:25:55.325Z,922.89
2018-11-23T06:27:26.897Z,922.89
2018-11-23T06:28:58.469Z,922.89
2018-11-23T06:30:30.045Z,922.92
2018-11-23T06:32:01.617Z,922.88
2018-11-23T06:33:33.386Z,922.83
2018-11-23T06:35:04.758Z,922.86
2018-11-23T06:36:36.330Z,922.82
2018-11-23T06:38:07.902Z,922.85
2018-11-23T06:39:40.083Z,922.88
2018-11-23T06:41:11.047Z,922.97
2018-11-23T06:42:42.621Z,922.97
2018-11-23T06:44:14.191Z,922.97
2018-11-23T06:45:45.764Z,923.03
2018-11-23T06:47:17.337Z,923.11
2018-11-23T06:48:48.909Z,923.09
2018-11-23T06:50:20.482Z,923.09
2018-11-23T06:51:52.153Z,923.16
2018-11-23T06:53:23.626Z,923.15
2018-11-23T06:54:55.198Z,923.23
2018-11-23T06:56:26.770Z,923.26
2018-11-23T06:57:58.342Z,923.27
2018-11-23T06:59:29.915Z,923.25
2018-11-23T07:01:01.488Z,923.24
2018-11-23T07:02:33.062Z,923.25
2018-11-23T07:04:04.733Z,923.27
2018-11-23T07:05:36.204Z,923.29
2018-11-23T07:07:07.776Z,923.34
2018-11-23T07:08:39.349Z,923.39
2018-11-23T07:10:11.325Z,923.53
2018-11-23T07:11:42.495Z,923.53
2018-11-23T07:13:14.067Z,923.57
2018-11-23T07:14:45.642Z,923.54
2018-11-23T07:16:17.211Z,923.60
2018-11-23T07:17:48.784Z,923.62
2018-11-23T07:19:20.356Z,923.69
2018-11-23T07:20:51.928Z,923.71
2018-11-23T07:22:23.500Z,923.76
2018-11-23T07:23:55.078Z,923.75
2018-11-23T07:25:26.646Z,923.77
2018-11-23T07:26:58.225Z,923.73
2018-11-23T07:28:29.889Z,923.67
2018-11-23T07:30:01.361Z,923.65
2018-11-23T07:31:32.934Z,923.63
2018-11-23T07:33:04.507Z,923.60
2018-11-23T07:34:36.177Z,923.59
2018-11-23T07:36:07.649Z,923.59
2018-11-23T07:37:39.222Z,923.61
2018-11-23T07:39:10.794Z,923.66
2018-11-23T07:40:42.669Z,923.67
2018-11-23T07:42:13.941Z,923.67
2018-11-23T07:43:45.511Z,923.70
2018-11-23T07:45:17.082Z,923.70
2018-11-23T07:46:48.756Z,923.70
2018-11-23T07:48:20.241Z,923.74
2018-11-23T07:49:51.803Z,923.75
2018-11-23T07:51:23.371Z,923.76
2018-11-23T07:54:26.523Z,923.83
2018-11-23T07:55:58.088Z,923.83
2018-11-23T07:57:29.660Z,923.91
2018-11-23T07:59:01.248Z,923.99
2018-11-23T08:00:32.804Z,924.04
2018-11-23T08:02:05.089Z,924.15
2018-11-23T08:03:36.061Z,924.14
2018-11-23T08:05:07.559Z,924.15
2018-11-23T08:06:39.225Z,924.12
2018-11-23T08:08:10.665Z,924.08
2018-11-23T08:09:42.328Z,924.07
2018-11-23T08:11:13.967Z,924.07
2018-11-23T08:12:45.711Z,924.06
2018-11-23T08:14:16.957Z,924.03
2018-11-23T08:15:48.526Z,924.04
2018-11-23T08:17:20.148Z,924.02
2018-11-23T08:20:23.844Z,924.02
2018-11-23T08:21:54.833Z,923.99
2018-11-23T08:23:26.538Z,923.97
2018-11-23T08:24:58.162Z,923.97
2018-11-23T08:26:29.661Z,923.94
2018-11-23T08:28:01.184Z,923.95
2018-11-23T08:29:32.678Z,924.00
2018-11-23T08:31:04.356Z,924.01
2018-11-23T08:32:36.111Z,924.01
2018-11-23T08:34:07.477Z,924.00
2018-11-23T08:35:39.119Z,924.03
2018-11-23T08:37:10.806Z,924.06
2018-11-23T08:38:42.384Z,924.06
2018-11-23T08:40:13.722Z,924.12
2018-11-23T08:41:45.257Z,924.18
2018-11-23T08:43:16.844Z,924.25
2018-11-23T08:44:48.505Z,924.21
2018-11-23T08:46:19.979Z,924.23
2018-11-23T08:47:51.613Z,924.26
2018-11-23T08:49:23.207Z,924.22
2018-11-23T08:52:26.454Z,924.24
2018-11-23T08:53:59.086Z,924.25
2018-11-23T08:55:31.259Z,924.23
2018-11-23T08:57:02.313Z,924.19
2018-11-23T08:58:34.908Z,924.22
2018-11-23T09:00:05.913Z,924.21
2018-11-23T09:01:36.971Z,924.26
2018-11-23T09:03:08.708Z,924.34
2018-11-23T09:04:40.691Z,924.29
2018-11-23T09:06:11.900Z,924.23
2018-11-23T09:07:43.109Z,924.27
2018-11-23T09:09:14.689Z,924.29
2018-11-23T09:10:47.099Z,924.32
2018-11-23T09:12:18.016Z,924.32
2018-11-23T09:13:50.541Z,924.31
2018-11-23T09:15:21.965Z,924.36
2018-11-23T09:16:53.356Z,924.33
2018-11-23T09:18:25.382Z,924.45
2018-11-23T09:19:56.070Z,924.51
2018-11-23T09:21:28.550Z,924.55
2018-11-23T09:23:00.077Z,924.62
2018-11-23T09:24:30.968Z,924.60
2018-11-23T09:26:02.676Z,924.60
2018-11-23T09:27:33.915Z,924.60
2018-11-23T09:29:05.493Z,924.67
2018-11-23T09:30:37.531Z,924.64
2018-11-23T09:32:08.980Z,924.63
2018-11-23T09:33:40.667Z,924.54
2018-11-23T09:35:11.808Z,924.56
2018-11-23T09:36:44.561Z,924.58
2018-11-23T09:38:16.056Z,924.64
2018-11-23T09:39:46.876Z,924.61
2018-11-23T09:41:18.701Z,924.64
2018-11-23T09:42:50.148Z,924.59
2018-11-23T09:44:21.846Z,924.56
2018-11-23T09:45:53.427Z,924.50
2018-11-23T09:47:24.997Z,924.49
2018-11-23T09:48:56.710Z,924.56
2018-11-23T09:50:28.588Z,924.57
2018-11-23T09:51:59.415Z,924.57
2018-11-23T09:53:30.865Z,924.59
2018-11-23T09:55:02.264Z,924.64
2018-11-23T09:56:34.073Z,924.63
2018-11-23T09:58:06.178Z,924.60
2018-11-23T09:59:37.147Z,924.61
2018-11-23T10:01:09.799Z,924.62
2018-11-23T10:02:40.408Z,924.66
2018-11-23T10:04:12.968Z,924.68
2018-11-23T10:05:44.683Z,924.78
2018-11-23T10:07:15.128Z,924.74
2018-11-23T10:08:47.322Z,924.77
2018-11-23T10:10:18.500Z,924.74
2018-11-23T10:11:49.929Z,924.68
2018-11-23T10:13:21.235Z,924.72
2018-11-23T10:14:52.611Z,924.74
2018-11-23T10:16:24.432Z,924.70
2018-11-23T10:17:56.267Z,924.73
2018-11-23T10:19:27.422Z,924.72
2018-11-23T10:20:59.949Z,924.71
2018-11-23T10:22:31.240Z,924.72
2018-11-23T10:24:02.309Z,924.76
2018-11-23T10:25:34.833Z,924.75
2018-11-23T10:27:06.533Z,924.78
2018-11-23T10:28:36.869Z,924.69
2018-11-23T10:30:09.183Z,924.67
2018-11-23T10:31:39.719Z,924.62
2018-11-23T10:33:12.302Z,924.62
2018-11-23T10:34:43.089Z,924.59
2018-11-23T10:36:16.212Z,924.68
2018-11-23T10:37:46.223Z,924.70
2018-11-23T10:39:18.258Z,924.67
2018-11-23T10:40:49.178Z,924.67
2018-11-23T10:42:22.496Z,924.64
2018-11-23T10:43:53.485Z,924.67
2018-11-23T10:45:25.142Z,924.62
2018-11-23T10:46:56.894Z,924.62
2018-11-23T10:48:28.184Z,924.68
2018-11-23T10:49:59.456Z,924.67
2018-11-23T10:51:32.094Z,924.72
2018-11-23T10:54:34.384Z,924.67
2018-11-23T10:56:07.269Z,924.73
2018-11-23T10:57:37.702Z,924.75
2018-11-23T10:59:11.471Z,924.73
2018-11-23T11:00:41.003Z,924.75
2018-11-23T11:02:12.896Z,924.73
2018-11-23T11:03:43.782Z,924.72
2018-11-23T11:05:15.757Z,924.71
2018-11-23T11:06:46.858Z,924.69
2018-11-23T11:08:18.263Z,924.68
2018-11-23T11:11:21.980Z,924.68
2018-11-23T11:12:54.418Z,924.69
2018-11-23T11:14:25.259Z,924.69
2018-11-23T11:15:55.914Z,924.70
2018-11-23T11:17:27.616Z,924.69
2018-11-23T11:20:30.942Z,924.72
2018-11-23T11:22:03.039Z,924.74
2018-11-23T11:23:34.291Z,924.73
2018-11-23T11:25:05.816Z,924.68
2018-11-23T11:26:37.152Z,924.82
2018-11-23T11:28:08.883Z,924.76
2018-11-23T11:29:40.768Z,924.79
2018-11-23T11:31:12.724Z,924.75
2018-11-23T11:32:43.584Z,924.75
2018-11-23T11:34:15.589Z,924.66
2018-11-23T11:35:47.065Z,924.75
2018-11-23T11:37:18.844Z,924.83
2018-11-23T11:38:50.792Z,924.76
2018-11-23T11:40:21.258Z,924.81
2018-11-23T11:41:52.913Z,924.75
2018-11-23T11:43:24.122Z,924.75
2018-11-23T11:44:56.733Z,924.70
2018-11-23T11:46:28.024Z,924.77
2018-11-23T11:48:00.710Z,924.70
2018-11-23T11:49:30.458Z,924.68
2018-11-23T11:51:02.903Z,924.67
2018-11-23T11:52:34.409Z,924.71
2018-11-23T11:54:05.905Z,924.69
2018-11-23T11:55:37.580Z,924.72
2018-11-23T11:57:09.147Z,924.60
2018-11-23T11:58:41.175Z,924.60
2018-11-23T12:00:11.887Z,924.61
2018-11-23T12:01:43.842Z,924.62
2018-11-23T12:03:16.089Z,924.64
2018-11-23T12:04:46.904Z,924.55
2018-11-23T12:06:18.445Z,924.59
2018-11-23T12:07:49.738Z,924.61
2018-11-23T12:09:21.799Z,924.49
2018-11-23T12:10:52.803Z,924.57
2018-11-23T12:12:24.445Z,924.70
2018-11-23T12:13:56.381Z,924.65
2018-11-23T12:15:27.791Z,924.67
2018-11-23T12:16:59.454Z,924.75
2018-11-23T12:18:31.017Z,924.79
2018-11-23T12:20:02.387Z,924.66
2018-11-23T12:21:34.466Z,924.77
2018-11-23T12:23:05.903Z,925.15
2018-11-23T12:24:36.999Z,924.74
2018-11-23T12:26:09.212Z,924.72
2018-11-23T12:27:41.530Z,924.58
2018-11-23T12:29:12.188Z,924.60
2018-11-23T12:30:43.596Z,924.73
2018-11-23T12:32:15.525Z,925.01
2018-11-23T12:33:46.456Z,924.84
2018-11-23T12:35:18.231Z,924.73
2018-11-23T12:36:49.567Z,925.01
2018-11-23T12:38:21.358Z,924.74
2018-11-23T12:39:53.099Z,924.89
2018-11-23T12:41:24.621Z,924.72
2018-11-23T12:42:56.203Z,924.71
2018-11-23T12:44:28.230Z,924.67
2018-11-23T12:45:59.768Z,924.59
2018-11-23T12:47:31.045Z,924.77
2018-11-23T12:49:02.596Z,924.66
2018-11-23T12:50:33.637Z,924.72
2018-11-23T12:52:05.155Z,924.69
2018-11-23T12:53:38.135Z,924.64
2018-11-23T12:55:09.266Z,924.60
2018-11-23T12:56:40.141Z,924.45
2018-11-23T12:58:11.782Z,924.35
2018-11-23T12:59:44.405Z,924.66
2018-11-23T13:01:15.311Z,924.64
2018-11-23T13:02:47.547Z,924.70
2018-11-23T13:04:17.962Z,924.70
2018-11-23T13:05:50.592Z,924.78
2018-11-23T13:07:23.630Z,924.60
2018-11-23T13:08:53.917Z,924.80
2018-11-23T13:10:25.113Z,924.74
2018-11-23T13:11:57.089Z,924.74
2018-11-23T13:13:28.382Z,924.77
2018-11-23T13:15:02.476Z,924.75
2018-11-23T13:16:31.421Z,924.72
2018-11-23T13:18:02.658Z,924.47
2018-11-23T13:19:33.864Z,924.80
2018-11-23T13:21:06.431Z,924.78
2018-11-23T13:22:37.675Z,924.75
2018-11-23T13:24:11.074Z,924.75
2018-11-23T13:25:41.172Z,924.91
2018-11-23T13:27:12.498Z,924.93
2018-11-23T13:28:43.842Z,924.82
2018-11-23T13:30:16.989Z,925.18
2018-11-23T13:31:47.668Z,925.06
2018-11-23T13:33:18.585Z,924.77
2018-11-23T13:34:51.099Z,924.78
2018-11-23T13:36:21.808Z,924.78
2018-11-23T13:37:53.428Z,924.96
2018-11-23T13:39:25.071Z,924.78
2018-11-23T13:40:56.512Z,924.79
2018-11-23T13:42:27.835Z,924.68
2018-11-23T13:43:59.824Z,924.63
2018-11-23T13:45:32.402Z,924.66
2018-11-23T13:47:03.320Z,924.56
2018-11-23T13:48:35.384Z,924.60
2018-11-23T13:50:05.857Z,924.40
2018-11-23T13:51:38.579Z,924.53
2018-11-23T13:53:09.958Z,924.72
2018-11-23T13:54:41.064Z,924.55
2018-11-23T13:56:12.757Z,924.40
2018-11-23T13:57:44.585Z,924.52
2018-11-23T13:59:16.073Z,924.94
2018-11-23T14:00:47.482Z,924.83
2018-11-23T14:02:19.604Z,924.72
2018-11-23T14:03:50.229Z,924.56
2018-11-23T14:06:53.661Z,924.70
2018-11-23T14:08:25.419Z,924.57
2018-11-23T14:09:56.911Z,924.57
2018-11-23T14:11:27.633Z,924.54
2018-11-23T14:13:00.073Z,924.50
2018-11-23T14:14:31.256Z,924.45
2018-11-23T14:16:03.265Z,924.62
2018-11-23T14:17:34.330Z,924.52
2018-11-23T14:19:05.965Z,924.40
2018-11-23T14:20:38.536Z,924.54
2018-11-23T14:22:08.933Z,924.41
2018-11-23T14:23:40.767Z,924.41
2018-11-23T14:25:12.124Z,924.39
2018-11-23T14:26:44.162Z,924.38
2018-11-23T14:28:15.562Z,924.14
2018-11-23T14:31:19.127Z,924.32
2018-11-23T14:32:50.375Z,924.30
2018-11-23T14:34:22.740Z,924.15
2018-11-23T14:35:54.204Z,923.81
2018-11-23T14:37:25.606Z,924.02
2018-11-23T14:38:57.064Z,923.90
2018-11-23T14:40:28.832Z,923.95
2018-11-23T14:42:00.712Z,924.03
2018-11-23T14:43:31.918Z,924.23
2018-11-23T14:45:03.463Z,924.03
2018-11-23T14:46:34.514Z,924.04
2018-11-23T14:48:06.879Z,924.01
2018-11-23T14:49:37.971Z,924.10
2018-11-23T14:51:10.064Z,923.88
2018-11-23T14:52:42.786Z,924.15
2018-11-23T14:54:13.038Z,924.11
2018-11-23T14:55:44.676Z,924.05
2018-11-23T14:57:15.808Z,924.02
2018-11-23T14:58:47.375Z,923.95
2018-11-23T15:00:18.986Z,923.83
2018-11-23T15:01:52.068Z,923.82
2018-11-23T15:03:22.088Z,923.81
2018-11-23T15:04:54.098Z,923.58
2018-11-23T15:06:25.552Z,923.76
2018-11-23T15:07:57.498Z,923.49
2018-11-23T15:09:28.307Z,923.74
2018-11-23T15:10:59.956Z,923.58
2018-11-23T15:12:33.370Z,923.53
2018-11-23T15:14:03.102Z,923.51
2018-11-23T15:15:35.664Z,923.57
2018-11-23T15:17:08.585Z,923.53
2018-11-23T15:18:39.453Z,923.69
2018-11-23T15:20:10.873Z,923.51
2018-11-23T15:21:41.309Z,923.51
2018-11-23T15:23:13.660Z,923.36
2018-11-23T15:24:44.496Z,923.53
2018-11-23T15:26:17.934Z,923.47
2018-11-23T15:27:47.856Z,923.38
2018-11-23T15:29:20.615Z,923.31
2018-11-23T15:30:50.915Z,923.24
2018-11-23T15:32:23.224Z,923.16
2018-11-23T15:33:56.426Z,923.07
2018-11-23T15:35:25.892Z,922.99
2018-11-23T15:36:57.474Z,923.11
2018-11-23T15:38:29.351Z,923.00
2018-11-23T15:40:01.282Z,923.18
2018-11-23T15:41:31.766Z,923.02
2018-11-23T15:43:03.354Z,923.00
2018-11-23T15:44:35.246Z,923.13
2018-11-23T15:47:25.599Z,923.11
2018-11-23T15:48:56.076Z,923.12
2018-11-23T15:51:59.253Z,923.10
2018-11-23T15:53:31.132Z,923.09
2018-11-23T15:55:05.094Z,923.00
2018-11-23T15:56:34.035Z,922.84
2018-11-23T15:58:06.529Z,923.13
2018-11-23T15:59:37.761Z,923.08
2018-11-23T16:01:09.239Z,922.93
2018-11-23T16:02:40.364Z,923.17
2018-11-23T16:05:43.880Z,922.94
2018-11-23T16:07:15.129Z,922.88
2018-11-23T16:11:50.102Z,922.63
2018-11-23T16:13:24.292Z,922.79
2018-11-23T16:14:53.196Z,922.77
2018-11-23T16:16:24.740Z,922.61
2018-11-23T16:17:56.447Z,922.62
2018-11-23T16:19:27.830Z,922.79
2018-11-23T16:20:59.417Z,922.68
2018-11-23T16:22:31.002Z,922.86
2018-11-23T16:25:34.276Z,922.33
2018-11-23T16:27:05.967Z,922.17
2018-11-23T16:28:37.359Z,922.32
2018-11-23T16:30:09.135Z,922.30
2018-11-23T16:31:40.647Z,922.28
2018-11-23T16:33:12.281Z,922.19
2018-11-23T16:34:43.719Z,922.08
2018-11-23T16:36:15.277Z,922.11
2018-11-23T16:37:46.861Z,922.23
2018-11-23T16:39:18.979Z,922.13
2018-11-23T16:42:21.920Z,922.11
2018-11-23T16:43:53.503Z,922.14
2018-11-23T16:45:24.785Z,922.16
2018-11-23T16:49:59.847Z,922.10
2018-11-23T16:51:31.996Z,922.10
2018-11-23T16:53:05.708Z,922.02
2018-11-23T16:54:34.510Z,921.87
2018-11-23T16:56:05.904Z,921.88
2018-11-23T16:57:37.475Z,922.01
2018-11-23T16:59:09.368Z,922.05
2018-11-23T17:00:40.964Z,922.10
2018-11-23T17:02:12.337Z,921.60
2018-11-23T17:03:44.429Z,921.60
2018-11-23T17:05:15.409Z,921.64
2018-11-23T17:06:47.034Z,921.67
2018-11-23T17:08:19.120Z,921.67
2018-11-23T17:09:50.515Z,921.61
2018-11-23T17:11:21.951Z,921.49
2018-11-23T17:12:53.334Z,921.70
2018-11-23T17:15:56.499Z,921.70
2018-11-23T17:17:28.084Z,921.79
2018-11-23T17:18:59.670Z,921.75
2018-11-23T17:20:31.255Z,921.84
2018-11-23T17:22:03.246Z,921.71
2018-11-23T17:23:34.431Z,921.51
2018-11-23T17:25:06.012Z,921.68
2018-11-23T17:26:37.598Z,921.62
2018-11-23T17:28:09.414Z,921.53
2018-11-23T17:29:40.771Z,921.49
2018-11-23T17:32:46.194Z,921.72
2018-11-23T17:34:18.340Z,921.59
2018-11-23T17:37:18.703Z,921.66
2018-11-23T17:38:50.861Z,921.61
2018-11-23T17:41:53.566Z,921.94
2018-11-23T17:43:25.404Z,921.75
2018-11-23T17:44:57.143Z,921.77
2018-11-23T17:46:28.292Z,921.76
2018-11-23T17:48:00.016Z,921.77
2018-11-23T17:49:31.393Z,921.54
2018-11-23T17:51:02.988Z,921.64
2018-11-23T17:52:34.587Z,921.53
2018-11-23T17:54:06.205Z,921.35
2018-11-23T17:58:18.801Z,921.03
2018-11-23T17:59:49.549Z,921.16
2018-11-23T18:02:52.014Z,921.12
2018-11-23T18:04:23.599Z,921.09
2018-11-23T18:05:55.389Z,921.01
2018-11-23T18:07:26.770Z,921.12
2018-11-23T18:10:29.956Z,921.00
2018-11-23T18:12:02.054Z,921.23
2018-11-23T18:13:33.218Z,921.26
2018-11-23T18:15:04.696Z,921.28
2018-11-23T18:16:36.797Z,921.27
2018-11-23T18:21:11.440Z,920.94
2018-11-23T18:24:14.205Z,920.89
2018-11-23T18:27:17.373Z,921.00
2018-11-23T18:28:48.957Z,920.79
2018-11-23T18:30:20.543Z,920.83
2018-11-23T18:31:52.126Z,920.61
2018-11-23T18:33:23.710Z,920.41
2018-11-23T18:34:55.299Z,920.45
2018-11-23T18:36:26.875Z,920.43
2018-11-23T18:37:58.458Z,920.41
2018-11-23T18:39:30.142Z,920.43
2018-11-23T18:41:02.358Z,920.50
2018-11-23T18:42:33.512Z,920.66
2018-11-23T18:44:04.789Z,920.78
2018-11-23T18:45:36.373Z,920.64
2018-11-23T18:47:07.955Z,920.67
2018-11-23T18:48:39.538Z,920.74
2018-11-23T18:50:11.118Z,920.88
2018-11-23T18:51:43.083Z,920.77
2018-11-23T18:54:47.279Z,920.70
2018-11-23T18:56:17.444Z,920.73
2018-11-23T18:57:49.127Z,920.86
2018-11-23T18:59:20.605Z,920.93
2018-11-23T19:02:23.766Z,920.98
2018-11-23T19:03:55.348Z,920.74
2018-11-23T19:05:26.934Z,920.66
2018-11-23T19:10:01.660Z,920.73
2018-11-23T19:11:33.237Z,920.64
2018-11-23T19:13:04.814Z,920.54
2018-11-23T19:14:36.391Z,920.86
2018-11-23T19:16:08.070Z,921.17
2018-11-23T19:17:39.746Z,921.17
2018-11-23T19:19:11.119Z,921.32
2018-11-23T19:20:42.699Z,921.26
2018-11-23T19:25:17.423Z,921.37
2018-11-23T19:26:48.997Z,921.39
2018-11-23T19:28:20.572Z,921.54
2018-11-23T19:31:23.824Z,921.68
2018-11-23T19:32:55.298Z,921.68
2018-11-23T19:34:26.872Z,921.62
2018-11-23T19:35:58.473Z,921.53
2018-11-23T19:37:30.756Z,921.55
2018-11-23T19:39:01.597Z,921.53
2018-11-23T19:40:33.173Z,921.58
2018-11-23T19:42:04.747Z,921.62
2018-11-23T19:43:36.321Z,921.64
2018-11-23T19:46:39.470Z,921.69
2018-11-23T19:48:11.046Z,921.81
2018-11-23T19:49:42.724Z,921.90
2018-11-23T19:51:14.194Z,921.94
2018-11-23T19:52:45.771Z,922.00
2018-11-23T19:54:17.344Z,921.98
2018-11-23T19:57:20.695Z,922.09
2018-11-23T19:58:52.620Z,922.11
2018-11-23T20:00:23.963Z,922.15
2018-11-23T20:01:57.302Z,922.09
2018-11-23T20:03:27.267Z,922.10
2018-11-23T20:05:01.075Z,921.98
2018-11-23T20:06:30.515Z,922.00